createdAt,value
2022-10-04T00:00:01.557Z,1015.4278636551613
2022-10-04T00:15:02.204Z,1015.4802004333543
2022-10-04T00:30:01.883Z,1015.1234973173787
2022-10-04T00:45:01.554Z,1015.1655604397607
2022-10-04T01:00:02.184Z,1014.7546918374221
2022-10-04T01:15:01.831Z,1014.8593680935079
2022-10-04T01:30:01.522Z,1014.9190958098613
2022-10-04T01:45:02.188Z,1014.6181433606431
2022-10-04T02:00:01.837Z,1014.4790820103877
2022-10-04T02:15:01.460Z,1014.2945374798197
2022-10-04T02:30:02.143Z,1014.1762080089252
2022-10-04T02:45:01.793Z,1014.1843394501121
2022-10-04T03:00:01.382Z,1013.9882503018151
2022-10-04T03:15:02.027Z,1013.8698314213576
2022-10-04T03:30:01.689Z,1013.7239683237199
2022-10-04T03:45:01.320Z,1013.655808670337
2022-10-04T04:00:01.937Z,1013.7536254072237
2022-10-04T04:15:01.748Z,1013.536101328751
2022-10-04T04:30:01.350Z,1013.6454234084133
2022-10-04T04:45:02.327Z,1013.5440114274304
2022-10-04T05:00:02.036Z,1013.5083569712993
2022-10-04T05:15:01.708Z,1013.5157536514386
2022-10-04T05:30:02.350Z,1013.4907245987928
2022-10-04T05:45:01.947Z,1013.4058909238412
2022-10-04T06:00:04.493Z,1013.4703338360778
2022-10-04T06:15:02.406Z,1013.3444722153224
2022-10-04T06:30:02.049Z,1013.2430867970093
2022-10-04T06:45:01.652Z,1013.2705303992076
2022-10-04T07:00:02.244Z,1013.313261517191
2022-10-04T07:15:01.863Z,1013.38410655566
2022-10-04T07:30:01.489Z,1013.4848709114237
2022-10-04T07:45:02.086Z,1013.5569271509195
2022-10-04T08:00:01.698Z,1013.6959271753373
2022-10-04T08:15:02.316Z,1013.574124803278
2022-10-04T08:30:01.971Z,1013.5988022065288
2022-10-04T08:45:01.604Z,1013.5196816726873
2022-10-04T09:00:02.213Z,1013.3236820102261
2022-10-04T09:15:01.866Z,1013.2444299034463
2022-10-04T09:30:01.507Z,1013.0979829358096
2022-10-04T09:45:02.121Z,1013.0585852901136
2022-10-04T10:00:01.719Z,1013.0761505958342
2022-10-04T10:15:01.353Z,1012.865059657119
2022-10-04T10:30:01.982Z,1012.7411494600782
2022-10-04T10:45:01.603Z,1012.8172071754037
2022-10-04T11:00:02.190Z,1012.7361653183149
2022-10-04T11:15:01.824Z,1012.7309558033683
2022-10-04T11:30:01.420Z,1012.4964502192681
2022-10-04T11:45:02.047Z,1012.2186997228273
2022-10-04T12:00:01.643Z,1012.173514390036
2022-10-04T12:15:01.264Z,1012.058233342104
2022-10-04T12:30:01.917Z,1011.9712044217731
2022-10-04T12:45:01.920Z,1011.6624083233222
2022-10-04T13:00:02.498Z,1011.5879606428899
2022-10-04T13:15:02.153Z,1011.4261717288615
2022-10-04T13:30:01.835Z,1011.1417888105398
2022-10-04T13:45:02.493Z,1010.99144035581
2022-10-04T14:00:02.117Z,1010.9789671675912
2022-10-04T14:15:01.776Z,1010.8638228553865
2022-10-04T14:30:02.463Z,1010.9369370894946
2022-10-04T14:45:02.064Z,1010.7794775667461
2022-10-04T15:00:01.689Z,1010.4843708396497
2022-10-04T15:15:02.322Z,1010.4407282673584
2022-10-04T15:30:01.928Z,1010.4889119936696
2022-10-04T15:45:01.580Z,1010.4590886414089
2022-10-04T16:00:02.189Z,1010.4381332969024
2022-10-04T16:15:01.801Z,1010.4204889696273
2022-10-04T16:30:25.601Z,1010.3472431376048
2022-10-04T16:45:01.520Z,1010.2679026360747
2022-10-04T17:00:02.115Z,1010.074677818089
2022-10-04T17:15:01.745Z,1010.0623037314398
2022-10-04T17:30:01.405Z,1010.2704854252062
2022-10-04T17:45:02.052Z,1010.3095191527152
2022-10-04T18:00:01.656Z,1010.439091322377
2022-10-04T18:15:02.321Z,1010.6014208731609
2022-10-04T18:30:01.981Z,1010.5096208809829
2022-10-04T18:45:01.606Z,1010.2682880625041
2022-10-04T19:00:02.232Z,1010.655114524994
2022-10-04T19:15:01.860Z,1010.7046245372217
2022-10-04T19:30:01.479Z,1010.4539292168394
2022-10-04T19:45:02.139Z,1010.4119029890555
2022-10-04T20:00:01.768Z,1010.5208572466877
2022-10-04T20:15:01.394Z,1010.5214312616005
2022-10-04T20:30:02.154Z,1010.1497987618257
2022-10-04T20:45:02.117Z,1010.0684789221332
2022-10-04T21:00:01.712Z,1009.8640630523572
2022-10-04T21:15:02.342Z,1009.9760270572422
2022-10-04T21:30:01.992Z,1010.0002916076681
2022-10-04T21:45:01.641Z,1009.7933305853171
2022-10-04T22:00:02.255Z,1009.9091422960317
2022-10-04T22:15:01.883Z,1010.0480378924298
2022-10-04T22:30:01.543Z,1009.8671417232555
2022-10-04T22:45:02.182Z,1009.9579173378514
2022-10-04T23:00:01.812Z,1009.9334102262171
2022-10-04T23:15:02.461Z,1009.8428797783096
2022-10-04T23:30:02.084Z,1009.8052610336676
2022-10-04T23:45:01.702Z,1009.7412324336245
